首页
METAR-TAF:

METAR-TAF

机场 :

澤西島,

纬度: 49-13N, 经度: 002-12W, 海拔: 84米

当前天气观测

该预报发布于19分钟前的14:20 UTC
风速24节,风向西转西南
温度 11°C
湿度 100%
气压 1024 hPa
能見度: 1400
散云层低于100英尺
多云层高于200英尺
毛毛雨, 轻雾

METAR: EGJJ 231420Z 25024KT 1400 R26/P2000 DZ BR SCT000 BKN002 11/11 Q1024

时间: 14:39 (14:39 UTC)

预报

该预报发布于40分钟前的13:59 UTC
预报有效从23日的 15点(UTC)到 24日的 00点(UTC)
风速21节,风向西
能見度: 6000
多云层高于300英尺
短暂存在
从 23日的 15点(UTC)到 24日的 00点(UTC)
能見度: 3000
多云层高于200英尺
小毛毛雨, 轻雾
几率 40% :
短暂存在
从 23日的 15点(UTC)到 24日的 00点(UTC)
能見度: 0600
多云层低于100英尺
成为
从 23日的 17点(UTC)到 23日的 19点(UTC)
风速15节,风向西转西南

TAF: EGJJ 231359Z 2315/2400 26021KT 6000 BKN003 TEMPO 2315/2400 3000 -DZ BR BKN002 PROB40 TEMPO 2315/2400 0600 FG BKN000 BECMG 2317/2319 25015KT

超过4000个机场的气象观测和天气预报(METAR&TAF报告)。

可查询的气象台以黄色和红色小点在地图上表示。

将鼠标移到小点上方,可查看气象台名称。

然后点击查看天气观测和预报。

如需切换地图:点击带黑十字的绿色按钮放大地图;点击带横线的绿色按钮缩小地图;或者点击绿色箭头查看邻近地区的地图。


METAR-TAF: